Time;durP1;ratioP1;P1;durP2;ratioP2;P2;SDS_P1;SDS_P2;PMS_P1;PMS_P2;Temp;Humidity;BMP_temperature;BMP_pressure;BME280_temperature;BME280_humidity;BME280_pressure;Samples;Min_cycle;Max_cycle;Signal;HPM_P1;HPM_P2
2022/10/01 00:01:07;;;;;;;31.90;18.60;;;;;;;7.54;100.00;99287.33;100553;1336;24299;-34
2022/10/01 00:03:34;;;;;;;25.20;15.50;;;;;;;7.55;100.00;99284.38;100608;1341;24310;-34
2022/10/01 00:06:01;;;;;;;31.70;14.80;;;;;;;7.54;100.00;99285.11;100603;1341;22986;-36
2022/10/01 00:08:28;;;;;;;22.10;12.20;;;;;;;7.55;100.00;99290.91;100579;1334;22508;-38
2022/10/01 00:10:53;;;;;;;24.70;14.50;;;;;;;7.59;100.00;99297.60;100595;1341;26669;-36
2022/10/01 00:13:19;;;;;;;15.10;10.40;;;;;;;7.60;100.00;99300.71;100554;1341;24306;-33
2022/10/01 00:15:45;;;;;;;23.90;11.90;;;;;;;7.60;100.00;99298.46;100581;1341;22755;-36
2022/10/01 00:18:10;;;;;;;20.10;10.70;;;;;;;7.61;100.00;99297.48;100568;1339;23106;-36
2022/10/01 00:20:40;;;;;;;29.90;15.40;;;;;;;7.61;100.00;99292.18;100655;1341;24296;-36
2022/10/01 00:23:06;;;;;;;32.80;16.00;;;;;;;7.61;100.00;99286.83;100636;1341;24330;-33
2022/10/01 00:25:31;;;;;;;35.90;18.00;;;;;;;7.60;100.00;99283.70;100553;1332;22628;-36
2022/10/01 00:27:58;;;;;;;21.70;10.30;;;;;;;7.58;100.00;99283.62;100562;1341;22519;-34
2022/10/01 00:30:23;;;;;;;31.10;16.50;;;;;;;7.57;100.00;99288.38;100615;1335;22497;-36
2022/10/01 00:32:52;;;;;;;27.80;15.60;;;;;;;7.57;100.00;99286.59;100549;1341;22762;-37
2022/10/01 00:35:18;;;;;;;21.80;10.00;;;;;;;7.57;100.00;99289.40;100565;1336;22501;-33
2022/10/01 00:37:45;;;;;;;16.30;8.50;;;;;;;7.56;100.00;99288.30;100569;1336;24252;-36
2022/10/01 00:40:10;;;;;;;34.60;17.60;;;;;;;7.55;100.00;99293.19;100607;1341;23103;-33
2022/10/01 00:42:36;;;;;;;31.70;13.50;;;;;;;7.55;100.00;99303.54;100596;1340;24375;-33
2022/10/01 00:45:02;;;;;;;33.90;15.10;;;;;;;7.56;100.00;99302.60;100563;1334;22889;-34
2022/10/01 00:47:32;;;;;;;30.10;13.90;;;;;;;7.58;100.00;99299.08;100556;1340;22867;-34
2022/10/01 00:50:04;;;;;;;35.50;15.60;;;;;;;7.58;100.00;99297.75;100682;1340;22501;-34
2022/10/01 00:52:30;;;;;;;38.20;16.20;;;;;;;7.58;100.00;99298.02;100575;1341;22748;-32
2022/10/01 00:54:58;;;;;;;52.60;20.90;;;;;;;7.56;100.00;99297.73;100591;1326;22488;-33
2022/10/01 00:57:24;;;;;;;46.80;18.80;;;;;;;7.59;100.00;99303.80;100527;1333;23106;-32
2022/10/01 00:59:50;;;;;;;50.30;18.60;;;;;;;7.62;100.00;99298.83;100562;1341;22519;-32
2022/10/01 01:02:16;;;;;;;51.70;17.60;;;;;;;7.64;100.00;99293.54;100614;1342;24380;-34
2022/10/01 01:04:42;;;;;;;43.50;16.00;;;;;;;7.65;100.00;99283.68;100598;1341;22846;-35
2022/10/01 01:07:07;;;;;;;29.30;12.20;;;;;;;7.66;100.00;99280.47;100640;1333;22502;-41
2022/10/01 01:09:35;;;;;;;53.30;18.00;;;;;;;7.67;100.00;99283.84;100608;1334;22888;-36
2022/10/01 01:12:07;;;;;;;36.50;14.70;;;;;;;7.65;100.00;99279.77;100559;1341;22798;-35
2022/10/01 01:14:38;;;;;;;46.10;16.90;;;;;;;7.62;100.00;99279.94;100580;1340;25294;-32
2022/10/01 01:17:07;;;;;;;25.90;13.40;;;;;;;7.57;100.00;99280.31;100656;1341;22514;-33
2022/10/01 01:19:42;;;;;;;29.80;14.40;;;;;;;7.51;100.00;99284.23;100651;1333;22930;-33
2022/10/01 01:22:08;;;;;;;26.60;13.90;;;;;;;7.46;100.00;99276.93;100600;1341;25164;-36
2022/10/01 01:24:38;;;;;;;35.80;14.60;;;;;;;7.40;100.00;99268.19;100628;1334;22764;-36
2022/10/01 01:27:12;;;;;;;36.60;17.80;;;;;;;7.36;100.00;99267.25;100619;1333;24372;-37
2022/10/01 01:29:41;;;;;;;;;;;;;;;7.34;100.00;99271.45;100677;1341;24352;-36
2022/10/01 01:32:11;;;;;;;56.70;23.40;;;;;;;7.33;100.00;99277.23;100669;1340;23217;-33
2022/10/01 01:34:36;;;;;;;78.10;26.60;;;;;;;7.33;100.00;99274.77;100718;1336;22497;-36
2022/10/01 01:37:10;;;;;;;52.00;23.20;;;;;;;7.33;100.00;99269.46;100568;1341;23106;-33
2022/10/01 01:39:37;;;;;;;36.40;14.70;;;;;;;7.32;100.00;99273.47;100612;1341;27032;-34
2022/10/01 01:42:05;;;;;;;33.50;14.80;;;;;;;7.34;100.00;99274.69;100663;1334;22791;-36
2022/10/01 01:44:33;;;;;;;50.70;18.90;;;;;;;7.36;100.00;99271.43;100589;1341;22481;-33
2022/10/01 01:47:00;;;;;;;45.70;19.10;;;;;;;7.39;100.00;99268.73;100494;1342;22874;-36
2022/10/01 01:49:26;;;;;;;26.30;11.00;;;;;;;7.40;100.00;99270.38;100628;1341;23101;-36
2022/10/01 01:51:53;;;;;;;;;;;;;;;7.41;100.00;99278.94;100554;1340;23158;-34
2022/10/01 01:54:19;;;;;;;44.50;17.50;;;;;;;7.42;100.00;99273.69;100627;1341;24432;-36
2022/10/01 01:56:45;;;;;;;38.90;13.30;;;;;;;7.42;100.00;99268.38;100585;1339;22879;-36
2022/10/01 01:59:11;;;;;;;43.00;19.00;;;;;;;7.41;100.00;99271.98;100647;1339;24332;-33
2022/10/01 02:01:38;;;;;;;35.90;16.60;;;;;;;7.42;100.00;99271.39;100668;1339;22771;-35
2022/10/01 02:04:12;;;;;;;23.20;10.30;;;;;;;7.43;100.00;99273.82;100676;1339;22872;-32
2022/10/01 02:06:47;;;;;;;43.30;19.20;;;;;;;7.44;100.00;99272.37;100626;1334;26508;-35
2022/10/01 02:09:17;;;;;;;49.20;17.60;;;;;;;7.42;100.00;99273.89;100615;1338;22516;-35
2022/10/01 02:11:52;;;;;;;58.70;22.50;;;;;;;7.40;100.00;99274.48;100667;1342;25550;-36
2022/10/01 02:14:27;;;;;;;32.70;14.20;;;;;;;7.40;100.00;99277.55;100622;1345;25349;-32
2022/10/01 02:16:58;;;;;;;47.40;16.10;;;;;;;7.40;100.00;99286.80;100637;1337;24043;-35
2022/10/01 02:19:32;;;;;;;55.70;19.90;;;;;;;7.40;100.00;99287.14;100657;1339;24401;-32
2022/10/01 02:21:59;;;;;;;94.60;21.40;;;;;;;7.41;100.00;99288.23;100649;1347;25411;-32
2022/10/01 02:24:32;;;;;;;42.10;14.90;;;;;;;7.42;100.00;99292.36;100606;1332;22515;-36
2022/10/01 02:26:59;;;;;;;52.00;19.40;;;;;;;7.43;100.00;99293.38;100657;1346;24313;-34
2022/10/01 02:29:24;;;;;;;51.60;14.70;;;;;;;7.43;100.00;99299.04;100658;1342;24367;-33
2022/10/01 02:31:52;;;;;;;50.70;18.20;;;;;;;7.43;100.00;99304.42;100574;1343;24350;-33
2022/10/01 02:34:17;;;;;;;87.40;20.40;;;;;;;7.41;100.00;99298.58;100705;1344;23079;-33
2022/10/01 02:36:44;;;;;;;65.60;17.80;;;;;;;7.38;100.00;99297.13;100596;1345;22504;-36
2022/10/01 02:39:10;;;;;;;38.10;14.70;;;;;;;7.35;100.00;99296.45;100592;1334;23363;-33
2022/10/01 02:41:36;;;;;;;74.10;18.10;;;;;;;7.32;100.00;99298.62;100587;1341;22716;-34
2022/10/01 02:44:06;;;;;;;81.80;17.40;;;;;;;7.30;100.00;99298.83;100502;1344;24372;-33
2022/10/01 02:46:35;;;;;;;47.40;18.50;;;;;;;7.29;100.00;99296.40;100611;1341;23066;-36
2022/10/01 02:49:01;;;;;;;57.70;18.70;;;;;;;7.29;100.00;99293.10;100671;1345;23052;-36
2022/10/01 02:51:34;;;;;;;71.80;16.70;;;;;;;7.27;100.00;99292.00;100548;1338;22817;-36
2022/10/01 02:54:06;;;;;;;79.60;18.20;;;;;;;7.24;100.00;99285.75;100657;1334;22664;-36
2022/10/01 02:59:00;;;;;;;61.70;16.40;;;;;;;7.14;100.00;99280.20;100661;1345;22950;-36
2022/10/01 03:01:26;;;;;;;51.00;14.90;;;;;;;7.08;100.00;99280.02;100520;1339;22510;-33
2022/10/01 03:03:52;;;;;;;80.80;16.00;;;;;;;7.03;100.00;99280.08;100577;1337;22748;-33
2022/10/01 03:06:19;;;;;;;76.10;18.20;;;;;;;6.97;100.00;99275.20;100309;1345;470630;-35
2022/10/01 03:08:45;;;;;;;31.90;14.50;;;;;;;6.91;100.00;99271.91;100537;1341;23108;-33
2022/10/01 03:11:10;;;;;;;34.40;11.90;;;;;;;6.88;100.00;99269.86;100597;1344;22765;-33
2022/10/01 03:13:36;;;;;;;87.10;19.10;;;;;;;6.86;100.00;99262.60;100569;1345;24363;-33
2022/10/01 03:16:01;;;;;;;56.40;15.80;;;;;;;6.83;100.00;99257.98;100584;1339;24389;-35
2022/10/01 03:18:27;;;;;;;25.50;12.60;;;;;;;6.82;100.00;99248.51;100656;1339;22573;-36
2022/10/01 03:20:52;;;;;;;67.20;20.50;;;;;;;6.80;100.00;99253.52;100629;1341;24474;-37
2022/10/01 03:23:17;;;;;;;44.80;17.30;;;;;;;6.81;100.00;99257.13;100569;1335;23177;-37
2022/10/01 03:25:43;;;;;;;73.60;18.30;;;;;;;6.81;100.00;99263.70;100613;1340;23395;-33
2022/10/01 03:28:08;;;;;;;72.70;20.50;;;;;;;6.83;100.00;99260.48;100635;1342;23241;-37
2022/10/01 03:30:34;;;;;;;60.10;20.70;;;;;;;6.85;100.00;99254.99;100574;1336;22751;-34
2022/10/01 03:33:00;;;;;;;100.30;19.70;;;;;;;6.87;100.00;99252.31;100573;1344;24315;-34
2022/10/01 03:35:25;;;;;;;71.50;18.90;;;;;;;6.87;100.00;99251.80;100589;1341;23215;-34
2022/10/01 03:37:51;;;;;;;71.90;20.30;;;;;;;6.86;100.00;99249.61;100627;1340;22894;-34
2022/10/01 03:40:17;;;;;;;58.80;17.50;;;;;;;6.86;100.00;99249.75;100620;1344;22766;-40
2022/10/01 03:42:43;;;;;;;103.80;22.40;;;;;;;6.85;100.00;99249.59;100653;1343;24345;-33
2022/10/01 03:45:08;;;;;;;54.10;16.90;;;;;;;6.82;100.00;99248.77;100614;1341;23231;-35
2022/10/01 03:47:34;;;;;;;52.00;15.20;;;;;;;6.83;100.00;99252.44;100621;1340;22875;-33
2022/10/01 03:49:59;;;;;;;51.50;13.60;;;;;;;6.85;100.00;99250.65;100559;1347;23247;-32
2022/10/01 03:52:25;;;;;;;47.00;16.60;;;;;;;6.85;100.00;99257.67;100602;1339;24459;-33
2022/10/01 03:54:51;;;;;;;51.40;15.00;;;;;;;6.86;100.00;99259.05;100598;1342;22919;-36
2022/10/01 03:57:16;;;;;;;67.70;18.60;;;;;;;6.88;100.00;99266.45;100529;1335;26611;-36
2022/10/01 03:59:42;;;;;;;35.60;12.30;;;;;;;6.85;100.00;99264.44;100520;1332;22761;-35
2022/10/01 04:02:07;;;;;;;60.00;16.40;;;;;;;6.83;100.00;99267.31;100602;1339;24805;-35
2022/10/01 04:04:33;;;;;;;44.30;14.10;;;;;;;6.82;100.00;99263.02;100609;1340;26510;-38
2022/10/01 04:06:58;;;;;;;29.00;13.30;;;;;;;6.83;100.00;99261.39;100581;1343;23005;-38
2022/10/01 04:09:24;;;;;;;47.90;12.40;;;;;;;6.82;100.00;99259.16;100582;1336;24886;-32
2022/10/01 04:11:50;;;;;;;60.50;15.70;;;;;;;6.83;100.00;99254.94;100553;1330;22761;-34
2022/10/01 04:14:15;;;;;;;31.20;14.10;;;;;;;6.86;100.00;99257.05;100620;1340;23126;-36
2022/10/01 04:16:40;;;;;;;31.20;10.30;;;;;;;6.89;100.00;99256.74;100586;1341;24343;-37
2022/10/01 04:19:06;;;;;;;31.70;11.30;;;;;;;6.93;100.00;99258.62;100578;1339;24463;-33
2022/10/01 04:21:31;;;;;;;84.10;18.80;;;;;;;6.92;100.00;99252.86;100548;1339;24361;-32
2022/10/01 04:23:58;;;;;;;44.80;13.70;;;;;;;6.89;100.00;99250.48;100533;1332;22753;-32
2022/10/01 04:26:24;;;;;;;32.80;16.70;;;;;;;6.86;100.00;99246.42;100598;1340;23207;-35
2022/10/01 04:28:50;;;;;;;49.60;14.40;;;;;;;6.83;100.00;99250.70;100560;1334;24372;-35
2022/10/01 04:33:44;;;;;;;62.70;14.70;;;;;;;6.81;100.00;99257.15;100632;1340;24387;-32
2022/10/01 04:36:10;;;;;;;68.00;15.60;;;;;;;6.79;100.00;99256.10;100607;1340;23392;-32
2022/10/01 04:38:36;;;;;;;79.50;20.90;;;;;;;6.79;100.00;99253.60;100653;1345;23117;-36
2022/10/01 04:41:01;;;;;;;36.20;11.20;;;;;;;6.79;100.00;99257.70;100597;1334;24488;-32
2022/10/01 04:43:27;;;;;;;45.30;14.20;;;;;;;6.77;100.00;99252.20;100569;1337;23340;-37
2022/10/01 04:45:52;;;;;;;45.80;14.40;;;;;;;6.75;100.00;99251.15;100599;1344;22700;-34
2022/10/01 04:48:18;;;;;;;56.50;14.80;;;;;;;6.69;100.00;99246.92;100606;1346;23342;-34
2022/10/01 04:50:43;;;;;;;26.60;12.30;;;;;;;6.65;100.00;99250.05;100600;1345;23236;-35
2022/10/01 04:53:09;;;;;;;49.30;13.90;;;;;;;6.62;100.00;99246.69;100588;1342;22751;-36
2022/10/01 04:55:35;;;;;;;40.80;13.50;;;;;;;6.57;100.00;99249.51;100633;1345;22753;-34
2022/10/01 04:58:01;;;;;;;57.90;14.20;;;;;;;6.53;100.00;99247.22;100602;1345;23367;-37
2022/10/01 05:00:27;;;;;;;57.20;15.40;;;;;;;6.50;100.00;99249.40;100631;1345;23084;-33
2022/10/01 05:02:53;;;;;;;91.20;15.90;;;;;;;6.43;100.00;99246.77;100612;1340;23208;-33
2022/10/01 05:05:20;;;;;;;21.50;11.50;;;;;;;6.41;100.00;99245.89;100569;1339;23339;-34
2022/10/01 05:07:48;;;;;;;33.80;13.60;;;;;;;6.40;100.00;99249.52;100608;1344;24339;-33
2022/10/01 05:10:16;;;;;;;33.80;12.70;;;;;;;6.40;100.00;99248.83;100575;1347;24429;-33
2022/10/01 05:12:42;;;;;;;45.40;13.50;;;;;;;6.42;100.00;99246.48;100676;1341;23240;-38
2022/10/01 05:15:08;;;;;;;25.30;11.70;;;;;;;6.40;100.00;99246.25;100523;1341;23077;-36
2022/10/01 05:17:33;;;;;;;55.60;17.30;;;;;;;6.38;100.00;99242.46;100594;1342;23222;-34
2022/10/01 05:20:00;;;;;;;33.20;12.60;;;;;;;6.38;100.00;99246.86;100577;1341;24477;-34
2022/10/01 05:22:25;;;;;;;54.40;12.50;;;;;;;6.39;100.00;99248.33;100621;1340;24338;-33
2022/10/01 05:24:51;;;;;;;40.30;14.40;;;;;;;6.39;100.00;99247.09;100675;1341;22988;-35
2022/10/01 05:27:17;;;;;;;44.20;16.40;;;;;;;6.40;100.00;99247.36;100609;1341;24469;-35
2022/10/01 05:29:43;;;;;;;46.10;12.90;;;;;;;6.41;100.00;99247.77;100637;1342;24864;-33
2022/10/01 05:32:09;;;;;;;39.00;16.20;;;;;;;6.42;100.00;99251.77;100599;1338;23227;-35
2022/10/01 05:34:35;;;;;;;81.80;18.90;;;;;;;6.42;100.00;99249.77;100543;1344;25227;-33
2022/10/01 05:37:01;;;;;;;37.20;17.30;;;;;;;6.45;100.00;99250.03;100623;1337;24383;-33
2022/10/01 05:39:28;;;;;;;46.90;15.30;;;;;;;6.48;100.00;99247.71;100614;1338;22873;-35
2022/10/01 05:41:55;;;;;;;39.40;14.50;;;;;;;6.50;100.00;99248.30;100518;1339;22894;-33
2022/10/01 05:44:21;;;;;;;27.30;13.20;;;;;;;6.51;100.00;99246.77;100604;1346;24528;-36
2022/10/01 05:46:47;;;;;;;68.80;17.70;;;;;;;6.54;100.00;99252.19;100639;1341;22763;-35
2022/10/01 05:49:12;;;;;;;53.60;14.80;;;;;;;6.55;100.00;99249.34;100573;1344;22879;-33
2022/10/01 05:51:38;;;;;;;35.40;16.40;;;;;;;6.58;100.00;99253.34;100635;1333;24259;-36
2022/10/01 05:54:04;;;;;;;54.10;15.20;;;;;;;6.61;100.00;99257.25;100592;1341;23138;-33
2022/10/01 05:56:29;;;;;;;36.60;16.60;;;;;;;6.66;100.00;99256.90;100537;1341;23114;-36
2022/10/01 05:58:55;;;;;;;54.10;16.40;;;;;;;6.72;100.00;99256.95;100600;1334;22854;-36
2022/10/01 06:01:21;;;;;;;56.70;16.70;;;;;;;6.79;100.00;99258.05;100599;1333;24486;-36
2022/10/01 06:03:50;;;;;;;34.80;15.60;;;;;;;6.86;100.00;99261.45;100621;1341;22753;-34
2022/10/01 06:06:23;;;;;;;61.50;19.30;;;;;;;6.91;100.00;99258.56;100568;1335;24372;-35
2022/10/01 06:08:50;;;;;;;43.80;15.80;;;;;;;6.98;100.00;99258.51;100524;1330;24491;-33
2022/10/01 06:11:16;;;;;;;47.00;16.00;;;;;;;7.03;100.00;99253.98;100591;1341;23347;-36
2022/10/01 06:13:44;;;;;;;39.90;16.80;;;;;;;7.11;100.00;99249.09;100536;1340;22748;-35
2022/10/01 06:16:11;;;;;;;51.00;16.30;;;;;;;7.17;100.00;99244.08;100653;1341;22508;-33
2022/10/01 06:18:36;;;;;;;33.00;15.50;;;;;;;7.26;100.00;99246.60;100538;1341;23101;-36
2022/10/01 06:21:02;;;;;;;36.00;15.50;;;;;;;7.35;100.00;99254.45;100660;1339;23115;-34
2022/10/01 06:23:27;;;;;;;43.40;16.60;;;;;;;7.42;100.00;99246.40;100670;1341;23231;-34
2022/10/01 06:25:53;;;;;;;17.30;10.20;;;;;;;7.47;100.00;99245.36;100606;1339;24477;-34
2022/10/01 06:28:19;;;;;;;31.00;15.10;;;;;;;7.59;100.00;99250.91;100554;1333;22736;-32
2022/10/01 06:30:44;;;;;;;55.70;18.00;;;;;;;7.67;100.00;99252.03;100571;1334;22749;-33
2022/10/01 06:33:12;;;;;;;57.00;16.40;;;;;;;7.75;100.00;99250.45;100560;1341;24301;-32
2022/10/01 06:35:39;;;;;;;21.40;11.60;;;;;;;7.86;100.00;99249.67;100627;1339;22752;-35
2022/10/01 06:38:05;;;;;;;42.80;17.80;;;;;;;8.03;100.00;99244.75;100544;1341;22530;-31
2022/10/01 06:40:31;;;;;;;20.90;11.50;;;;;;;8.21;100.00;99244.88;100602;1333;24435;-35
2022/10/01 06:42:57;;;;;;;42.50;21.00;;;;;;;8.40;100.00;99241.59;100573;1341;22506;-32
2022/10/01 06:45:24;;;;;;;43.00;21.20;;;;;;;8.57;100.00;99241.25;100627;1340;24502;-33
2022/10/01 06:47:54;;;;;;;32.70;16.50;;;;;;;8.69;100.00;99234.71;100596;1341;22847;-36
2022/10/01 06:50:20;;;;;;;37.90;18.40;;;;;;;8.76;100.00;99232.05;100628;1341;24485;-33
2022/10/01 06:52:47;;;;;;;38.00;21.30;;;;;;;8.84;100.00;99227.56;100624;1341;22711;-36
2022/10/01 06:55:16;;;;;;;35.80;19.80;;;;;;;8.94;100.00;99228.90;100550;1341;24842;-34
2022/10/01 06:57:42;;;;;;;33.40;19.90;;;;;;;9.01;100.00;99228.34;100633;1333;25228;-34
2022/10/01 07:00:08;;;;;;;37.90;20.90;;;;;;;9.09;100.00;99231.11;100590;1341;22752;-36
2022/10/01 07:02:34;;;;;;;38.70;21.80;;;;;;;9.22;100.00;99232.52;100593;1334;24362;-34
2022/10/01 07:05:00;;;;;;;29.00;17.60;;;;;;;9.36;100.00;99243.45;100550;1341;23357;-36
2022/10/01 07:07:29;;;;;;;27.00;16.20;;;;;;;9.54;100.00;99244.70;100580;1341;24413;-36
2022/10/01 07:09:57;;;;;;;29.10;17.30;;;;;;;9.75;100.00;99245.79;100578;1325;22524;-37
2022/10/01 07:12:24;;;;;;;22.40;14.00;;;;;;;9.89;100.00;99240.15;100610;1341;22525;-35
2022/10/01 07:14:49;;;;;;;22.90;14.60;;;;;;;10.03;100.00;99238.34;100682;1341;24295;-37
2022/10/01 07:17:15;;;;;;;33.90;19.80;;;;;;;10.21;100.00;99232.38;100585;1342;22864;-38
2022/10/01 07:19:40;;;;;;;29.00;17.40;;;;;;;10.44;100.00;99225.89;100577;1341;22764;-35
2022/10/01 07:22:06;;;;;;;34.00;18.50;;;;;;;10.63;100.00;99224.34;100601;1340;22752;-35
2022/10/01 07:24:31;;;;;;;24.00;15.40;;;;;;;10.75;100.00;99219.48;100544;1341;23106;-35
2022/10/01 07:26:57;;;;;;;28.70;15.30;;;;;;;11.02;100.00;99209.02;100582;1341;22864;-35
2022/10/01 07:29:23;;;;;;;23.50;13.50;;;;;;;11.23;100.00;99213.86;100581;1341;22905;-37
2022/10/01 07:31:50;;;;;;;21.30;13.20;;;;;;;11.35;100.00;99214.58;100611;1340;24375;-35
2022/10/01 07:34:16;;;;;;;20.20;13.40;;;;;;;11.73;100.00;99220.69;100523;1331;23360;-35
2022/10/01 07:36:44;;;;;;;20.40;14.10;;;;;;;11.95;100.00;99223.42;100589;1325;23226;-39
2022/10/01 07:39:11;;;;;;;17.50;11.70;;;;;;;12.22;100.00;99219.63;100559;1338;24497;-34
2022/10/01 07:41:37;;;;;;;18.20;12.00;;;;;;;12.40;100.00;99202.21;100599;1340;24815;-36
2022/10/01 07:44:03;;;;;;;17.10;12.00;;;;;;;12.69;100.00;99176.48;100634;1341;22953;-36
2022/10/01 07:46:29;;;;;;;14.40;10.50;;;;;;;12.93;100.00;99158.99;100612;1333;23270;-33
2022/10/01 07:48:54;;;;;;;14.80;11.30;;;;;;;13.24;100.00;99136.54;100628;1341;25397;-33
2022/10/01 07:51:20;;;;;;;16.10;10.40;;;;;;;13.47;100.00;99133.41;100610;1341;22521;-36
2022/10/01 07:53:46;;;;;;;10.90;8.30;;;;;;;13.61;100.00;99120.87;100586;1341;24559;-36
2022/10/01 07:56:12;;;;;;;16.60;11.10;;;;;;;13.82;100.00;99091.23;100802;1339;22551;-34
2022/10/01 07:58:38;;;;;;;15.60;10.50;;;;;;;14.07;100.00;99079.86;100567;1339;22752;-33
2022/10/01 08:01:04;;;;;;;20.30;13.40;;;;;;;14.37;100.00;99074.75;100584;1341;24594;-37
2022/10/01 08:03:29;;;;;;;21.40;13.40;;;;;;;14.57;100.00;99062.41;100560;1335;24389;-35
2022/10/01 08:05:55;;;;;;;5.50;4.90;;;;;;;14.81;100.00;99051.64;100639;1336;23252;-37
2022/10/01 08:08:21;;;;;;;14.30;10.50;;;;;;;14.84;100.00;99045.40;100578;1341;22750;-35
2022/10/01 08:10:49;;;;;;;18.70;10.50;;;;;;;14.97;100.00;99041.45;100581;1341;22508;-37
2022/10/01 08:13:15;;;;;;;19.20;11.10;;;;;;;15.16;100.00;99040.66;100536;1341;24635;-37
2022/10/01 08:15:42;;;;;;;14.90;9.70;;;;;;;15.40;100.00;99031.60;100644;1342;22544;-37
2022/10/01 08:18:08;;;;;;;15.30;10.00;;;;;;;15.63;100.00;99027.27;100615;1341;24171;-37
2022/10/01 08:20:34;;;;;;;12.20;8.80;;;;;;;16.00;100.00;99028.98;100632;1333;24527;-37
2022/10/01 08:23:01;;;;;;;7.40;6.10;;;;;;;16.24;100.00;99027.77;100622;1341;23129;-34
2022/10/01 08:25:27;;;;;;;10.50;6.70;;;;;;;16.47;99.43;99027.87;100636;1340;23243;-34
2022/10/01 08:27:52;;;;;;;9.00;7.80;;;;;;;16.74;99.13;99020.20;100656;1317;24502;-34
2022/10/01 08:30:18;;;;;;;11.00;8.40;;;;;;;16.88;93.58;99014.77;100604;1341;22717;-37
2022/10/01 08:32:43;;;;;;;8.40;6.30;;;;;;;17.03;93.21;99013.26;100568;1336;22506;-35
2022/10/01 08:35:09;;;;;;;10.90;7.90;;;;;;;17.30;96.36;99009.84;100543;1337;24616;-37
2022/10/01 08:37:34;;;;;;;10.80;6.30;;;;;;;17.57;90.74;99009.61;100578;1340;22629;-34
2022/10/01 08:40:01;;;;;;;6.80;5.50;;;;;;;17.67;87.69;99009.86;100556;1341;24390;-37
2022/10/01 08:42:28;;;;;;;5.80;4.50;;;;;;;17.66;87.08;99006.80;100561;1333;22749;-37
2022/10/01 08:44:53;;;;;;;5.30;4.60;;;;;;;17.45;83.77;99004.08;100605;1341;22768;-40
2022/10/01 08:47:24;;;;;;;7.00;6.30;;;;;;;17.26;80.18;99003.65;100562;1340;24354;-34
2022/10/01 08:49:52;;;;;;;5.60;4.70;;;;;;;16.93;80.69;99000.64;100653;1333;23244;-36
2022/10/01 08:52:21;;;;;;;7.40;5.40;;;;;;;16.91;82.66;99001.01;100685;1341;22894;-37
2022/10/01 08:54:53;;;;;;;6.60;4.60;;;;;;;17.19;83.02;99001.23;100646;1333;23104;-37
2022/10/01 08:57:23;;;;;;;7.60;6.40;;;;;;;17.47;80.61;98999.51;100654;1333;22763;-37
2022/10/01 08:59:50;;;;;;;7.40;6.40;;;;;;;17.77;79.28;99000.63;100646;1341;22599;-35
2022/10/01 09:02:18;;;;;;;5.60;5.20;;;;;;;17.75;74.04;99001.75;100609;1334;25872;-35
2022/10/01 09:04:44;;;;;;;5.80;4.50;;;;;;;17.39;72.98;98996.28;100632;1341;24490;-37
2022/10/01 09:07:19;;;;;;;8.80;5.90;;;;;;;17.12;74.89;98989.88;100620;1333;22765;-35
2022/10/01 09:09:48;;;;;;;8.90;6.40;;;;;;;17.35;75.38;98978.33;100552;1333;22932;-37
2022/10/01 09:12:22;;;;;;;5.70;5.20;;;;;;;17.45;69.83;98979.91;100618;1341;24245;-38
2022/10/01 09:14:54;;;;;;;4.50;4.00;;;;;;;17.18;69.34;98977.77;100634;1333;24879;-36
2022/10/01 09:17:39;;;;;;;5.30;4.40;;;;;;;16.98;71.17;98981.70;100660;1341;25294;-40
2022/10/01 09:20:12;;;;;;;5.40;4.60;;;;;;;16.89;70.34;98977.50;100552;1340;24322;-36
2022/10/01 09:22:40;;;;;;;9.80;6.90;;;;;;;16.75;69.71;98975.98;100636;1341;25305;-38
2022/10/01 09:25:12;;;;;;;10.90;6.80;;;;;;;16.48;70.68;98976.59;100550;1341;25924;-35
2022/10/01 09:27:38;;;;;;;9.00;5.50;;;;;;;16.38;69.35;98971.56;100629;1341;22571;-38
2022/10/01 09:30:06;;;;;;;4.00;3.30;;;;;;;16.11;69.79;98965.39;100612;1334;25645;-38
2022/10/01 09:32:39;;;;;;;5.30;4.40;;;;;;;15.89;70.73;98959.66;100659;1326;24776;-38
2022/10/01 09:35:11;;;;;;;5.30;4.30;;;;;;;15.80;69.98;98955.91;100596;1326;24343;-38
2022/10/01 09:37:42;;;;;;;4.20;3.80;;;;;;;15.70;69.91;98949.92;100574;1341;24306;-37
2022/10/01 09:40:13;;;;;;;9.80;5.70;;;;;;;15.51;71.40;98946.11;100626;1333;24223;-37
2022/10/01 09:42:39;;;;;;;6.70;4.20;;;;;;;15.44;72.36;98940.34;100630;1327;22725;-37
2022/10/01 09:45:05;;;;;;;9.40;4.70;;;;;;;15.49;74.39;98937.67;100576;1341;22752;-38
2022/10/01 09:47:31;;;;;;;8.50;4.70;;;;;;;15.70;72.08;98934.96;100619;1337;24766;-37
2022/10/01 09:49:58;;;;;;;4.20;3.20;;;;;;;15.65;71.84;98927.55;100589;1341;22531;-35
2022/10/01 09:52:29;;;;;;;4.00;3.30;;;;;;;15.63;71.48;98926.05;100522;1340;23128;-35
2022/10/01 09:54:57;;;;;;;3.90;2.70;;;;;;;15.70;73.42;98918.25;100646;1340;22872;-35
2022/10/01 09:57:26;;;;;;;2.90;2.50;;;;;;;16.17;73.38;98913.02;100597;1341;22889;-38
2022/10/01 09:59:56;;;;;;;6.90;5.10;;;;;;;16.57;72.43;98913.48;100543;1335;25717;-35
2022/10/01 10:02:22;;;;;;;5.50;3.90;;;;;;;16.94;70.60;98912.30;100632;1322;23122;-35
2022/10/01 10:05:05;;;;;;;4.90;4.00;;;;;;;16.93;69.54;98911.10;100583;1334;22579;-33
2022/10/01 10:07:33;;;;;;;5.00;4.40;;;;;;;17.03;69.91;98902.67;100645;1341;24277;-36
2022/10/01 10:10:06;;;;;;;4.50;3.60;;;;;;;17.27;69.42;98898.26;100607;1339;24380;-36
2022/10/01 10:12:33;;;;;;;;;;;;;;;17.53;65.91;98904.81;100612;1341;22473;-36
2022/10/01 10:15:05;;;;;;;;;;;;;;;17.64;67.15;98898.15;100595;1332;22738;-34
2022/10/01 10:17:30;;;;;;;5.50;4.80;;;;;;;18.11;67.45;98896.20;100604;1341;24522;-34
2022/10/01 10:19:56;;;;;;;3.70;2.70;;;;;;;18.70;67.01;98890.85;100598;1340;22469;-37
2022/10/01 10:22:24;;;;;;;8.30;4.40;;;;;;;19.25;66.04;98879.58;100576;1333;22811;-35
2022/10/01 10:24:52;;;;;;;3.90;3.00;;;;;;;19.33;59.49;98879.95;100580;1339;22744;-36
2022/10/01 10:27:21;;;;;;;4.50;3.20;;;;;;;19.30;59.97;98872.96;100636;1336;22889;-35
2022/10/01 10:29:47;;;;;;;7.40;3.20;;;;;;;19.45;59.51;98868.70;100606;1334;24766;-34
2022/10/01 10:32:18;;;;;;;9.20;3.30;;;;;;;19.62;59.15;98860.60;100558;1334;22745;-36
2022/10/01 10:34:45;;;;;;;10.30;3.60;;;;;;;19.56;58.42;98860.73;100663;1342;25602;-37
2022/10/01 10:37:15;;;;;;;3.60;2.80;;;;;;;19.45;57.95;98855.52;100596;1339;22530;-37
2022/10/01 10:39:42;;;;;;;3.30;2.40;;;;;;;19.39;58.33;98853.22;100653;1341;22526;-35
2022/10/01 10:42:07;;;;;;;5.10;4.30;;;;;;;19.51;59.19;98843.73;100609;1340;22928;-34
2022/10/01 10:44:37;;;;;;;5.20;2.60;;;;;;;19.64;59.09;98841.64;100543;1341;22765;-35
2022/10/01 10:47:06;;;;;;;5.80;2.40;;;;;;;19.88;58.63;98837.33;100642;1333;22739;-37
2022/10/01 10:49:32;;;;;;;4.50;3.60;;;;;;;20.14;58.52;98837.17;100574;1341;22748;-37
2022/10/01 10:51:59;;;;;;;7.40;2.70;;;;;;;20.21;54.38;98841.54;100536;1341;22878;-37
2022/10/01 10:54:29;;;;;;;4.10;2.30;;;;;;;19.77;54.69;98840.03;100641;1341;22741;-38
2022/10/01 10:56:59;;;;;;;2.90;2.50;;;;;;;19.33;55.14;98839.91;100655;1330;22510;-38
2022/10/01 10:59:25;;;;;;;3.70;2.90;;;;;;;19.05;54.56;98832.51;100691;1333;22672;-35
2022/10/01 11:01:51;;;;;;;3.00;2.60;;;;;;;18.79;54.22;98822.79;100584;1341;23103;-38
2022/10/01 11:04:24;;;;;;;3.80;2.20;;;;;;;18.43;56.33;98820.55;100581;1341;22753;-35
2022/10/01 11:06:54;;;;;;;2.30;1.40;;;;;;;18.36;57.06;98820.89;100269;1341;626939;-38
2022/10/01 11:09:20;;;;;;;12.20;3.20;;;;;;;17.96;58.70;98827.65;100609;1333;24867;-39
2022/10/01 11:11:52;;;;;;;4.60;3.30;;;;;;;17.86;58.79;98817.30;100544;1334;23057;-37
2022/10/01 11:14:22;;;;;;;6.00;2.90;;;;;;;17.66;59.27;98813.27;100551;1341;22623;-37
2022/10/01 11:16:53;;;;;;;3.90;2.70;;;;;;;17.39;60.85;98808.50;100630;1333;22751;-37
2022/10/01 11:19:41;;;;;;;5.50;3.30;;;;;;;17.32;61.98;98799.80;100537;1333;24312;-37